Time;durP1;ratioP1;P1;durP2;ratioP2;P2;SDS_P1;SDS_P2;PMS_P1;PMS_P2;Temp;Humidity;BMP_temperature;BMP_pressure;BME280_temperature;BME280_humidity;BME280_pressure;Samples;Min_cycle;Max_cycle;Signal;HPM_P1;HPM_P2
2021/10/31 00:01:12;;;;;;;1.30;1.20;;;14.10;99.90;;;;;;5036334;28;20404;-65
2021/10/31 00:03:38;;;;;;;1.40;1.30;;;14.20;99.90;;;;;;5036129;28;20447;-65
2021/10/31 00:06:04;;;;;;;1.37;1.27;;;14.30;99.90;;;;;;5035953;28;20925;-64
2021/10/31 00:08:30;;;;;;;1.40;1.30;;;14.30;99.90;;;;;;5035755;28;20406;-65
2021/10/31 00:10:57;;;;;;;1.60;1.50;;;14.40;99.90;;;;;;5036174;28;20174;-65
2021/10/31 00:13:24;;;;;;;1.23;1.00;;;14.50;99.90;;;;;;5036052;28;20244;-66
2021/10/31 00:15:49;;;;;;;1.50;1.40;;;14.50;99.90;;;;;;5035669;28;20405;-66
2021/10/31 00:18:15;;;;;;;1.10;1.10;;;14.50;99.90;;;;;;5035394;28;20963;-66
2021/10/31 00:20:41;;;;;;;1.33;1.03;;;14.60;99.90;;;;;;5036101;28;20260;-65
2021/10/31 00:23:07;;;;;;;2.10;1.90;;;14.60;99.90;;;;;;5035881;28;20169;-65
2021/10/31 00:25:32;;;;;;;1.83;1.73;;;14.60;99.90;;;;;;5035745;28;20711;-65
2021/10/31 00:27:58;;;;;;;1.60;1.50;;;14.50;99.90;;;;;;5035404;28;20920;-65
2021/10/31 00:30:24;;;;;;;1.93;1.73;;;14.50;99.90;;;;;;5035552;28;20282;-66
2021/10/31 00:32:51;;;;;;;2.10;2.00;;;14.50;99.90;;;;;;5035519;28;22564;-66
2021/10/31 00:35:17;;;;;;;1.90;1.60;;;14.50;99.90;;;;;;5035774;28;20181;-65
2021/10/31 00:37:43;;;;;;;1.67;1.57;;;14.50;99.90;;;;;;5035298;28;20418;-64
2021/10/31 00:40:09;;;;;;;1.97;1.87;;;14.50;99.90;;;;;;5035647;28;20416;-66
2021/10/31 00:42:35;;;;;;;1.43;1.20;;;14.40;99.90;;;;;;5034390;28;20572;-65
2021/10/31 00:45:01;;;;;;;2.00;1.90;;;14.50;99.90;;;;;;5036244;28;20419;-65
2021/10/31 00:47:27;;;;;;;1.37;1.30;;;14.50;99.90;;;;;;5035064;28;20481;-65
2021/10/31 00:49:52;;;;;;;2.00;1.90;;;14.50;99.90;;;;;;5035585;28;20183;-65
2021/10/31 00:52:18;;;;;;;1.90;1.47;;;14.50;99.90;;;;;;5035163;28;20177;-65
2021/10/31 00:54:45;;;;;;;2.30;2.20;;;14.50;99.90;;;;;;5035384;28;20585;-65
2021/10/31 00:57:11;;;;;;;1.80;1.70;;;14.50;99.90;;;;;;5034841;28;20383;-65
2021/10/31 00:59:37;;;;;;;1.90;1.80;;;14.40;99.90;;;;;;5033901;28;20388;-65
2021/10/31 01:02:09;;;;;;;1.43;1.33;;;14.40;99.90;;;;;;5034426;28;20747;-65
2021/10/31 01:04:35;;;;;;;1.63;1.53;;;14.40;99.90;;;;;;5035215;28;20853;-65
2021/10/31 01:07:32;;;;;;;2.00;1.87;;;14.30;99.90;;;;;;5034807;28;20426;-66
2021/10/31 01:10:08;;;;;;;1.60;1.50;;;14.30;99.90;;;;;;5034966;28;20390;-64
2021/10/31 01:13:03;;;;;;;2.87;1.37;;;14.30;99.90;;;;;;5035024;28;20521;-65
2021/10/31 01:15:53;;;;;;;2.23;1.80;;;14.30;99.90;;;;;;5034794;28;20441;-65
2021/10/31 01:18:43;;;;;;;1.17;1.10;;;14.20;99.90;;;;;;5034327;28;20450;-64
2021/10/31 01:21:34;;;;;;;1.63;1.53;;;14.00;99.90;;;;;;5035070;28;20386;-65
2021/10/31 01:24:18;;;;;;;1.73;1.63;;;13.90;99.90;;;;;;5034862;28;20870;-66
2021/10/31 01:27:05;;;;;;;1.70;1.60;;;13.90;99.90;;;;;;5034547;28;20407;-65
2021/10/31 01:29:50;;;;;;;4.80;2.10;;;13.80;99.90;;;;;;5034747;28;20408;-64
2021/10/31 01:32:31;;;;;;;2.50;2.30;;;13.80;99.90;;;;;;5016892;28;20411;-65
2021/10/31 01:35:05;;;;;;;3.90;3.60;;;13.70;99.90;;;;;;5033151;28;20435;-64
2021/10/31 01:37:41;;;;;;;3.17;2.60;;;13.60;99.90;;;;;;5016579;28;20494;-64
2021/10/31 01:40:09;;;;;;;2.27;2.03;;;13.50;99.90;;;;;;5034524;28;20416;-64
2021/10/31 01:42:42;;;;;;;2.40;2.20;;;13.50;99.90;;;;;;5034544;28;20796;-64
2021/10/31 01:45:19;;;;;;;2.43;2.23;;;13.40;99.90;;;;;;5034372;28;20411;-65
2021/10/31 01:48:12;;;;;;;2.80;2.47;;;13.30;99.90;;;;;;5034121;28;20422;-65
2021/10/31 01:50:45;;;;;;;2.67;2.43;;;13.20;99.90;;;;;;5034416;28;20370;-65
2021/10/31 01:53:17;;;;;;;2.77;2.63;;;13.20;99.90;;;;;;5034149;28;20458;-65
2021/10/31 01:55:54;;;;;;;3.30;3.00;;;13.20;99.90;;;;;;5034159;28;20436;-64
2021/10/31 01:58:23;;;;;;;3.10;2.90;;;13.10;99.90;;;;;;5033649;28;20418;-64
2021/10/31 02:00:50;;;;;;;2.60;2.40;;;13.00;99.90;;;;;;5034059;28;20402;-64
2021/10/31 02:03:19;;;;;;;2.43;2.23;;;12.90;99.90;;;;;;5033983;28;20984;-65
2021/10/31 02:05:46;;;;;;;2.53;2.33;;;12.90;99.90;;;;;;5033786;28;20413;-65
2021/10/31 02:08:13;;;;;;;4.53;3.10;;;12.70;99.90;;;;;;5033375;28;20425;-65
2021/10/31 02:10:41;;;;;;;2.87;2.67;;;12.60;99.90;;;;;;5033886;28;20230;-65
2021/10/31 02:13:10;;;;;;;3.35;2.53;;;12.50;99.90;;;;;;5033587;28;20450;-64
2021/10/31 02:15:37;;;;;;;2.90;2.70;;;12.50;99.90;;;;;;5033553;28;20270;-65
2021/10/31 02:18:04;;;;;;;3.00;2.30;;;12.40;99.90;;;;;;5033661;28;20421;-65
2021/10/31 02:20:30;;;;;;;3.67;3.17;;;12.40;99.90;;;;;;5033655;28;20411;-65
2021/10/31 02:22:57;;;;;;;2.95;2.65;;;12.30;99.90;;;;;;5015956;28;20552;-65
2021/10/31 02:25:24;;;;;;;3.17;2.87;;;12.30;99.90;;;;;;5033573;28;20175;-64
2021/10/31 02:27:50;;;;;;;2.80;2.60;;;12.30;99.90;;;;;;5033092;28;20437;-64
2021/10/31 02:30:17;;;;;;;2.60;2.40;;;12.20;99.90;;;;;;5033656;28;20197;-65
2021/10/31 02:32:42;;;;;;;3.50;2.90;;;12.20;99.90;;;;;;5033435;28;20250;-65
2021/10/31 02:35:11;;;;;;;2.80;2.50;;;12.20;99.90;;;;;;5033485;28;20425;-65
2021/10/31 02:37:38;;;;;;;3.33;2.95;;;12.20;99.90;;;;;;5033494;28;20195;-65
2021/10/31 02:40:06;;;;;;;3.20;2.90;;;12.10;99.90;;;;;;5033653;28;20175;-65
2021/10/31 02:42:31;;;;;;;3.80;3.38;;;12.00;99.90;;;;;;5033417;28;20178;-65
2021/10/31 02:44:57;;;;;;;3.30;3.00;;;11.90;99.90;;;;;;5033333;28;20595;-65
2021/10/31 02:47:34;;;;;;;4.03;3.70;;;11.80;99.90;;;;;;5032871;28;20288;-65
2021/10/31 02:50:00;;;;;;;3.72;3.17;;;11.70;99.90;;;;;;5033268;28;20174;-65
2021/10/31 02:52:50;;;;;;;3.38;3.08;;;11.60;99.90;;;;;;5033438;28;20205;-65
2021/10/31 02:55:52;;;;;;;4.45;4.05;;;11.50;99.90;;;;;;5033338;28;20594;-65
2021/10/31 02:58:44;;;;;;;3.47;3.28;;;11.40;99.90;;;;;;5032600;28;20248;-65
2021/10/31 03:01:11;;;;;;;4.15;3.80;;;11.30;99.90;;;;;;5033020;28;20170;-65
2021/10/31 03:03:37;;;;;;;4.70;4.07;;;11.30;99.90;;;;;;5033008;28;20235;-64
2021/10/31 03:06:04;;;;;;;5.83;3.17;;;11.20;99.90;;;;;;5033177;28;20174;-65
2021/10/31 03:08:31;;;;;;;16.70;3.90;;;11.10;99.90;;;;;;5032575;28;20234;-65
2021/10/31 03:11:02;;;;;;;4.57;4.22;;;11.10;99.90;;;;;;5032962;28;20182;-64
2021/10/31 03:13:29;;;;;;;5.40;3.03;;;11.00;99.90;;;;;;5032946;28;20198;-65
2021/10/31 03:15:55;;;;;;;3.17;2.92;;;11.00;99.90;;;;;;5032821;28;20654;-64
2021/10/31 03:18:22;;;;;;;3.35;3.03;;;11.00;99.90;;;;;;5032771;28;20569;-65
2021/10/31 03:20:48;;;;;;;3.15;2.85;;;10.90;99.90;;;;;;5032770;28;20216;-65
2021/10/31 03:23:14;;;;;;;3.70;3.25;;;10.90;99.90;;;;;;5033010;28;20186;-65
2021/10/31 03:25:40;;;;;;;4.35;3.53;;;10.90;99.90;;;;;;5037149;28;20235;-65
2021/10/31 03:28:05;;;;;;;3.77;3.47;;;10.90;99.90;;;;;;5036393;28;20190;-64
2021/10/31 03:30:32;;;;;;;4.10;3.73;;;10.80;99.90;;;;;;5036820;28;20202;-65
2021/10/31 03:32:58;;;;;;;5.95;4.03;;;10.80;99.90;;;;;;5036719;28;20236;-65
2021/10/31 03:35:24;;;;;;;5.43;3.60;;;10.70;99.90;;;;;;5036767;28;20170;-65
2021/10/31 03:37:50;;;;;;;3.28;3.03;;;10.70;99.90;;;;;;5036268;28;20182;-65
2021/10/31 03:40:16;;;;;;;4.07;3.30;;;10.60;99.90;;;;;;5036484;28;20287;-64
2021/10/31 03:42:42;;;;;;;4.25;3.22;;;10.60;99.90;;;;;;5036472;28;20401;-64
2021/10/31 03:45:10;;;;;;;3.60;3.30;;;10.60;99.90;;;;;;5036620;28;20170;-65
2021/10/31 03:47:40;;;;;;;3.53;3.20;;;10.50;99.90;;;;;;5035928;28;20705;-64
2021/10/31 03:50:07;;;;;;;4.05;3.75;;;10.40;99.90;;;;;;5036443;28;20170;-64
2021/10/31 03:52:32;;;;;;;2.90;2.70;;;10.40;99.90;;;;;;5036522;28;20177;-64
2021/10/31 03:54:58;;;;;;;4.27;3.93;;;10.30;99.90;;;;;;5036392;28;20202;-65
2021/10/31 03:57:24;;;;;;;3.63;3.33;;;10.30;99.90;;;;;;5035916;28;20433;-65
2021/10/31 03:59:49;;;;;;;3.90;3.50;;;10.30;99.90;;;;;;5037021;28;20170;-65
2021/10/31 04:02:15;;;;;;;2.73;2.53;;;10.20;99.90;;;;;;5036042;28;20654;-65
2021/10/31 04:04:41;;;;;;;3.40;3.10;;;10.20;99.90;;;;;;5036002;28;20534;-65
2021/10/31 04:07:06;;;;;;;3.90;3.17;;;10.10;99.90;;;;;;5035924;28;20645;-64
2021/10/31 04:09:32;;;;;;;3.77;3.47;;;10.10;99.90;;;;;;5036457;28;20177;-65
2021/10/31 04:11:58;;;;;;;2.97;2.80;;;10.00;99.90;;;;;;5036131;28;20179;-65
2021/10/31 04:14:24;;;;;;;5.67;3.23;;;10.00;99.90;;;;;;5036067;28;20420;-65
2021/10/31 04:16:49;;;;;;;3.43;3.13;;;9.90;99.90;;;;;;5035640;28;20320;-65
2021/10/31 04:19:15;;;;;;;3.17;2.97;;;9.90;99.90;;;;;;5035691;28;20252;-65
2021/10/31 04:21:41;;;;;;;2.80;2.70;;;9.90;99.90;;;;;;5035973;28;20174;-64
2021/10/31 04:24:06;;;;;;;3.30;3.00;;;9.80;99.90;;;;;;5035763;28;20180;-64
2021/10/31 04:26:32;;;;;;;3.97;3.67;;;9.70;99.90;;;;;;5035600;28;20178;-65
2021/10/31 04:28:58;;;;;;;3.60;3.30;;;9.70;99.90;;;;;;5035649;28;20194;-65
2021/10/31 04:31:23;;;;;;;3.10;2.80;;;9.60;99.90;;;;;;5035842;28;20170;-64
2021/10/31 04:33:49;;;;;;;3.43;3.23;;;9.60;99.90;;;;;;5035381;28;20662;-65
2021/10/31 04:36:18;;;;;;;2.80;2.60;;;9.60;99.90;;;;;;5034478;28;20178;-64
2021/10/31 04:38:45;;;;;;;3.35;2.63;;;9.60;99.90;;;;;;5035676;28;20289;-65
2021/10/31 04:41:11;;;;;;;1.98;1.88;;;9.60;99.90;;;;;;5035644;28;20178;-65
2021/10/31 04:43:39;;;;;;;4.73;2.77;;;9.50;99.90;;;;;;5035583;28;20588;-64
2021/10/31 04:46:05;;;;;;;3.25;2.88;;;9.50;99.90;;;;;;5035555;28;20504;-64
2021/10/31 04:48:30;;;;;;;3.78;3.40;;;9.50;99.90;;;;;;5034908;28;20189;-64
2021/10/31 04:50:56;;;;;;;3.30;3.10;;;9.50;99.90;;;;;;5035284;28;20178;-64
2021/10/31 04:53:22;;;;;;;3.87;3.57;;;9.50;99.90;;;;;;5035224;28;20593;-64
2021/10/31 04:55:48;;;;;;;2.92;2.72;;;9.50;99.90;;;;;;5035264;28;20539;-64
2021/10/31 04:58:14;;;;;;;4.30;3.50;;;9.50;99.90;;;;;;5034762;28;20201;-64
2021/10/31 05:00:39;;;;;;;3.47;3.17;;;9.50;99.90;;;;;;5035296;28;20176;-64
2021/10/31 05:03:05;;;;;;;4.20;3.30;;;9.50;99.90;;;;;;5035189;28;20692;-64
2021/10/31 05:05:32;;;;;;;2.50;2.40;;;9.50;99.90;;;;;;5035259;28;20542;-65
2021/10/31 05:08:01;;;;;;;3.22;2.90;;;9.50;99.90;;;;;;5034854;28;20605;-64
2021/10/31 05:10:27;;;;;;;3.50;3.20;;;9.60;99.90;;;;;;5033639;28;20261;-64
2021/10/31 05:12:53;;;;;;;4.65;3.03;;;9.60;99.90;;;;;;5033628;28;20181;-66
2021/10/31 05:15:20;;;;;;;3.22;2.78;;;9.60;99.90;;;;;;5035120;28;20193;-64
2021/10/31 05:17:46;;;;;;;4.55;3.05;;;9.70;99.90;;;;;;5034269;28;20214;-65
2021/10/31 05:20:12;;;;;;;3.42;3.13;;;9.70;99.90;;;;;;5033448;28;20174;-64
2021/10/31 05:22:39;;;;;;;3.80;3.50;;;9.70;99.90;;;;;;5034700;28;20212;-64
2021/10/31 05:25:06;;;;;;;3.53;3.33;;;9.70;99.90;;;;;;5034622;28;20257;-65
2021/10/31 05:27:33;;;;;;;3.38;3.15;;;9.70;99.90;;;;;;5034283;28;20562;-65
2021/10/31 05:29:59;;;;;;;5.15;4.03;;;9.70;99.90;;;;;;5034812;28;20177;-65
2021/10/31 05:32:31;;;;;;;4.03;3.73;;;9.70;99.90;;;;;;5034551;28;20173;-65
2021/10/31 05:34:57;;;;;;;3.75;3.47;;;9.60;99.90;;;;;;5034421;28;20198;-65
2021/10/31 05:37:22;;;;;;;3.40;3.10;;;9.60;99.90;;;;;;5034258;28;20166;-65
2021/10/31 05:39:48;;;;;;;3.73;3.43;;;9.60;99.90;;;;;;5034356;28;20519;-64
2021/10/31 05:42:14;;;;;;;6.83;3.40;;;9.60;99.90;;;;;;5034388;28;20174;-65
2021/10/31 05:44:40;;;;;;;3.30;3.00;;;9.60;99.90;;;;;;5034474;28;20174;-65
2021/10/31 05:47:06;;;;;;;4.05;3.70;;;9.50;99.90;;;;;;5033699;28;20174;-65
2021/10/31 05:49:33;;;;;;;4.25;3.70;;;9.40;99.90;;;;;;5034181;28;20216;-65
2021/10/31 05:51:58;;;;;;;3.05;2.47;;;9.40;99.90;;;;;;5034089;28;20696;-65
2021/10/31 05:54:24;;;;;;;3.43;3.13;;;9.40;99.90;;;;;;5032776;28;20209;-65
2021/10/31 05:56:50;;;;;;;4.23;3.37;;;9.30;99.90;;;;;;5034064;28;20169;-64
2021/10/31 05:59:15;;;;;;;4.33;3.23;;;9.20;99.90;;;;;;5034210;28;20668;-65
2021/10/31 06:01:41;;;;;;;3.97;3.67;;;9.20;99.90;;;;;;5016413;28;20177;-64
2021/10/31 06:04:06;;;;;;;3.83;3.10;;;9.20;99.90;;;;;;5033903;28;20228;-65
2021/10/31 06:06:34;;;;;;;3.93;3.60;;;9.20;99.90;;;;;;5033561;28;20174;-65
2021/10/31 06:08:59;;;;;;;3.05;2.80;;;9.30;99.90;;;;;;5033978;28;20279;-64
2021/10/31 06:11:25;;;;;;;3.27;2.93;;;9.30;99.90;;;;;;5033959;28;20650;-65
2021/10/31 06:13:51;;;;;;;2.83;2.63;;;9.30;99.90;;;;;;5033826;28;20238;-65
2021/10/31 06:16:16;;;;;;;3.67;3.37;;;9.30;99.90;;;;;;5033339;28;20181;-65
2021/10/31 06:18:42;;;;;;;4.73;4.10;;;9.30;99.90;;;;;;5033581;28;20423;-66
2021/10/31 06:21:08;;;;;;;3.60;3.30;;;9.40;99.90;;;;;;5033814;28;20220;-65
2021/10/31 06:23:35;;;;;;;3.27;3.03;;;9.50;99.90;;;;;;5033778;28;20181;-65
2021/10/31 06:26:02;;;;;;;4.07;3.78;;;9.50;99.90;;;;;;5033716;28;20176;-64
2021/10/31 06:28:27;;;;;;;3.72;3.42;;;9.60;99.90;;;;;;5033175;28;20194;-65
2021/10/31 06:30:53;;;;;;;4.70;4.30;;;9.70;99.90;;;;;;5033971;28;20224;-65
2021/10/31 06:33:19;;;;;;;3.87;3.47;;;9.80;99.90;;;;;;5033653;28;20198;-65
2021/10/31 06:35:45;;;;;;;3.97;3.57;;;9.90;99.90;;;;;;5033941;28;20638;-64
2021/10/31 06:38:11;;;;;;;3.88;3.47;;;10.00;99.90;;;;;;5035587;28;20228;-65
2021/10/31 06:40:36;;;;;;;3.77;3.47;;;10.00;99.90;;;;;;5033855;28;20650;-64
2021/10/31 06:43:02;;;;;;;3.20;2.90;;;10.10;99.90;;;;;;5033665;28;20197;-64
2021/10/31 06:45:28;;;;;;;4.73;3.83;;;10.20;99.90;;;;;;5034527;28;20420;-65
2021/10/31 06:47:53;;;;;;;4.43;4.13;;;10.30;99.90;;;;;;5033640;28;20244;-64
2021/10/31 06:50:19;;;;;;;3.83;3.53;;;10.30;99.90;;;;;;5034829;28;20170;-65
2021/10/31 06:52:46;;;;;;;4.10;3.70;;;10.40;99.90;;;;;;5034118;28;20253;-65
2021/10/31 06:55:12;;;;;;;3.45;3.22;;;10.40;99.90;;;;;;5033678;28;20201;-65
2021/10/31 06:57:39;;;;;;;3.73;3.47;;;10.40;99.90;;;;;;5033348;28;20221;-64
2021/10/31 07:00:06;;;;;;;4.05;3.22;;;10.40;99.90;;;;;;5034634;28;20492;-64
2021/10/31 07:02:32;;;;;;;3.25;2.95;;;10.40;99.90;;;;;;5034559;28;20181;-64
2021/10/31 07:04:58;;;;;;;3.27;3.07;;;10.50;99.90;;;;;;5033213;28;20547;-65
2021/10/31 07:07:23;;;;;;;2.70;2.47;;;10.70;99.90;;;;;;5032601;28;20174;-65
2021/10/31 07:09:49;;;;;;;3.67;3.27;;;10.80;99.90;;;;;;5033218;28;20176;-65
2021/10/31 07:12:15;;;;;;;4.27;3.87;;;10.90;99.90;;;;;;5032833;28;20178;-65
2021/10/31 07:14:41;;;;;;;5.57;3.00;;;11.00;99.90;;;;;;5033135;28;20566;-66
2021/10/31 07:17:07;;;;;;;4.40;3.47;;;11.10;99.90;;;;;;5032444;28;20186;-64
2021/10/31 07:19:32;;;;;;;3.33;3.10;;;11.20;99.90;;;;;;5032905;28;20175;-65
2021/10/31 07:21:58;;;;;;;4.10;3.60;;;11.20;99.90;;;;;;5032959;28;20170;-64
2021/10/31 07:24:24;;;;;;;3.43;2.93;;;11.20;99.90;;;;;;5033029;28;20182;-66
2021/10/31 07:26:49;;;;;;;4.40;3.57;;;11.30;99.90;;;;;;5032712;28;20171;-64
2021/10/31 07:29:15;;;;;;;3.77;3.23;;;11.40;99.90;;;;;;5032644;28;20194;-65
2021/10/31 07:31:43;;;;;;;4.85;3.67;;;11.60;99.90;;;;;;5032935;28;20257;-65
2021/10/31 07:34:10;;;;;;;4.38;3.65;;;11.80;99.90;;;;;;5031497;28;20607;-66
2021/10/31 07:36:36;;;;;;;3.03;2.83;;;12.00;99.90;;;;;;5032477;28;20667;-65
2021/10/31 07:39:03;;;;;;;3.37;3.07;;;12.10;99.90;;;;;;5032675;28;20271;-65
2021/10/31 07:41:29;;;;;;;5.80;4.23;;;12.40;99.90;;;;;;5032838;28;20436;-65
2021/10/31 07:43:54;;;;;;;4.40;3.47;;;12.60;99.90;;;;;;5032877;28;20423;-65
2021/10/31 07:46:24;;;;;;;5.93;3.20;;;12.90;99.90;;;;;;5032279;28;20315;-66
2021/10/31 07:48:49;;;;;;;4.00;3.67;;;13.10;99.90;;;;;;5032724;28;20548;-66
2021/10/31 07:51:15;;;;;;;3.37;3.17;;;13.20;99.90;;;;;;5032909;28;20375;-66
2021/10/31 07:53:42;;;;;;;3.80;3.10;;;13.40;99.90;;;;;;5032674;28;20553;-65
2021/10/31 07:56:12;;;;;;;2.50;2.40;;;13.50;99.90;;;;;;5032583;28;20919;-65
2021/10/31 07:58:37;;;;;;;2.87;2.67;;;13.80;99.90;;;;;;5032398;28;20411;-66
2021/10/31 08:01:04;;;;;;;4.43;4.13;;;14.20;99.90;;;;;;5032577;28;20395;-65
2021/10/31 08:03:30;;;;;;;2.93;2.70;;;14.80;99.90;;;;;;5032665;28;20418;-65
2021/10/31 08:05:56;;;;;;;2.70;2.50;;;15.60;99.90;;;;;;5032645;28;20420;-66
2021/10/31 08:08:22;;;;;;;6.23;2.83;;;16.50;99.90;;;;;;5032088;28;20425;-66
2021/10/31 08:10:48;;;;;;;2.93;2.40;;;17.20;99.90;;;;;;5034737;28;20233;-66
2021/10/31 08:13:22;;;;;;;3.00;2.70;;;17.80;99.90;;;;;;5036078;28;20431;-68
2021/10/31 08:15:48;;;;;;;2.77;2.57;;;18.10;99.90;;;;;;5035696;28;20427;-66
2021/10/31 08:18:14;;;;;;;3.30;3.10;;;18.00;99.90;;;;;;5035526;28;20787;-66
2021/10/31 08:20:40;;;;;;;3.43;3.00;;;17.70;99.90;;;;;;5036030;28;20380;-65
2021/10/31 08:23:05;;;;;;;2.50;2.30;;;17.20;99.90;;;;;;5035742;28;20206;-66
2021/10/31 08:25:31;;;;;;;3.00;2.80;;;16.70;99.90;;;;;;5035996;28;20185;-66
2021/10/31 08:27:57;;;;;;;3.63;2.80;;;16.20;99.90;;;;;;5035585;28;20638;-67
2021/10/31 08:30:29;;;;;;;2.80;2.60;;;16.00;99.90;;;;;;5035950;28;20238;-66
2021/10/31 08:32:55;;;;;;;3.10;2.90;;;15.60;99.90;;;;;;5018811;28;20502;-66
2021/10/31 08:35:21;;;;;;;3.47;3.27;;;15.40;99.90;;;;;;5035568;28;20403;-66
2021/10/31 08:37:46;;;;;;;3.40;3.20;;;15.20;99.90;;;;;;5035002;28;20494;-65
2021/10/31 08:40:12;;;;;;;3.70;3.40;;;15.10;99.90;;;;;;5035694;28;20494;-65
2021/10/31 08:42:39;;;;;;;3.60;3.30;;;15.00;99.90;;;;;;5035622;28;20850;-66
2021/10/31 08:45:08;;;;;;;3.43;3.13;;;15.00;99.90;;;;;;5035499;28;20381;-66
2021/10/31 08:47:33;;;;;;;4.10;3.80;;;15.00;99.90;;;;;;5035209;28;20392;-66
2021/10/31 08:50:00;;;;;;;3.47;3.13;;;15.00;99.90;;;;;;5033935;28;20918;-66
2021/10/31 08:52:25;;;;;;;3.50;3.20;;;14.90;99.90;;;;;;5035282;28;20175;-66
2021/10/31 08:54:51;;;;;;;3.37;3.17;;;14.80;99.90;;;;;;5035341;28;20444;-66
2021/10/31 08:57:17;;;;;;;3.33;3.03;;;14.80;99.90;;;;;;5034968;28;20221;-66
2021/10/31 08:59:42;;;;;;;4.20;2.70;;;14.80;99.90;;;;;;5035190;28;20173;-66
2021/10/31 09:02:08;;;;;;;2.70;2.50;;;14.90;99.90;;;;;;5035097;28;20174;-65
2021/10/31 09:04:34;;;;;;;3.20;2.90;;;15.10;99.90;;;;;;5035245;28;20175;-66
2021/10/31 09:07:00;;;;;;;3.90;3.10;;;15.30;99.90;;;;;;5034730;28;20529;-65
2021/10/31 09:09:26;;;;;;;4.40;3.90;;;15.60;99.90;;;;;;5034816;28;20411;-67
2021/10/31 09:11:51;;;;;;;3.20;2.87;;;15.90;99.90;;;;;;5035079;28;20311;-67
2021/10/31 09:14:17;;;;;;;2.67;2.47;;;16.20;99.90;;;;;;5034716;28;20197;-67
2021/10/31 09:16:43;;;;;;;3.50;3.20;;;16.50;99.90;;;;;;5034473;28;20213;-66
2021/10/31 09:19:09;;;;;;;3.20;2.50;;;17.10;99.90;;;;;;5034882;28;20538;-67
2021/10/31 09:21:35;;;;;;;3.70;3.40;;;18.00;99.90;;;;;;5034074;28;20519;-67
2021/10/31 09:24:00;;;;;;;3.17;2.87;;;18.80;99.90;;;;;;5034591;28;20483;-67
2021/10/31 09:26:26;;;;;;;3.20;2.53;;;19.60;99.90;;;;;;5016388;28;20181;-67
2021/10/31 09:28:52;;;;;;;2.90;2.70;;;20.30;99.90;;;;;;5034420;28;20194;-67
2021/10/31 09:31:18;;;;;;;5.60;2.50;;;20.70;99.90;;;;;;5034344;28;20162;-68
2021/10/31 09:33:44;;;;;;;2.97;2.77;;;21.30;99.90;;;;;;5034563;28;20206;-67
2021/10/31 09:36:10;;;;;;;3.03;2.77;;;22.00;99.90;;;;;;5034278;28;20924;-67
2021/10/31 09:38:37;;;;;;;2.60;2.40;;;22.50;99.90;;;;;;5032803;28;20277;-67
2021/10/31 09:41:03;;;;;;;3.07;2.77;;;22.90;99.30;;;;;;5034510;28;20472;-67
2021/10/31 09:43:32;;;;;;;2.30;2.20;;;23.30;99.90;;;;;;5034490;28;20772;-67
2021/10/31 09:45:59;;;;;;;2.53;2.33;;;23.50;98.60;;;;;;5034057;28;20184;-67
2021/10/31 09:48:32;;;;;;;2.50;2.30;;;23.90;98.10;;;;;;5033714;28;20403;-67
2021/10/31 09:51:00;;;;;;;2.70;2.50;;;24.30;96.20;;;;;;5034405;28;20433;-67
2021/10/31 09:53:28;;;;;;;2.17;1.97;;;24.40;97.20;;;;;;5033783;28;20511;-67
2021/10/31 09:55:55;;;;;;;2.33;2.13;;;24.80;96.10;;;;;;5034192;28;20412;-67
2021/10/31 09:58:25;;;;;;;2.30;2.10;;;25.20;93.20;;;;;;5033715;28;20936;-67
2021/10/31 10:00:57;;;;;;;1.70;1.60;;;25.40;93.90;;;;;;5033990;28;20413;-67
2021/10/31 10:06:18;;;;;;;2.20;2.00;;;25.30;92.50;;;;;;5034043;28;20437;-67
2021/10/31 10:09:23;;;;;;;1.97;1.77;;;25.10;92.80;;;;;;5033957;28;20429;-67
2021/10/31 10:11:50;;;;;;;1.90;1.80;;;25.00;94.50;;;;;;4973284;28;20395;-67
2021/10/31 10:14:19;;;;;;;2.80;2.60;;;25.10;93.60;;;;;;4972891;28;20459;-66
2021/10/31 10:16:46;;;;;;;2.33;2.20;;;25.20;93.60;;;;;;4972722;28;20410;-67
2021/10/31 10:19:21;;;;;;;2.17;2.00;;;25.30;93.90;;;;;;4972983;28;20435;-66
2021/10/31 10:22:20;;;;;;;1.73;1.63;;;25.40;92.30;;;;;;4972607;28;20412;-67
2021/10/31 10:24:53;;;;;;;2.00;1.67;;;25.40;93.00;;;;;;4952026;28;20392;-66
2021/10/31 10:27:23;;;;;;;1.67;1.57;;;25.40;91.50;;;;;;4972308;28;20412;-67
2021/10/31 10:29:50;;;;;;;2.17;2.07;;;25.30;92.20;;;;;;4972596;28;20419;-67
2021/10/31 10:32:18;;;;;;;1.60;1.50;;;25.40;91.50;;;;;;4972764;28;20398;-68
2021/10/31 10:34:47;;;;;;;2.30;2.10;;;25.30;92.00;;;;;;4971573;28;20437;-66
2021/10/31 10:37:20;;;;;;;2.20;2.00;;;25.20;92.00;;;;;;4972148;28;20425;-67
2021/10/31 10:40:09;;;;;;;2.10;1.90;;;25.00;92.30;;;;;;4972673;28;20385;-66
2021/10/31 10:42:39;;;;;;;2.40;2.20;;;24.90;93.00;;;;;;5003532;28;20516;-67
2021/10/31 10:45:11;;;;;;;2.53;2.33;;;24.70;92.30;;;;;;5033330;28;20422;-66
2021/10/31 10:47:45;;;;;;;1.87;1.77;;;24.60;93.90;;;;;;5032977;28;20393;-67
2021/10/31 10:50:38;;;;;;;2.10;2.00;;;24.40;92.10;;;;;;5033296;28;20380;-66
2021/10/31 10:53:17;;;;;;;2.63;1.97;;;24.10;93.50;;;;;;5025004;28;20422;-66
2021/10/31 10:55:43;;;;;;;3.20;1.70;;;24.10;93.00;;;;;;5033806;28;20390;-65
2021/10/31 10:58:14;;;;;;;2.20;2.00;;;23.80;92.70;;;;;;5032745;28;20769;-66
2021/10/31 11:00:49;;;;;;;2.00;1.90;;;23.50;93.80;;;;;;5033051;28;20391;-65
2021/10/31 11:03:29;;;;;;;4.83;1.50;;;23.00;93.40;;;;;;5033210;28;20424;-65
2021/10/31 11:06:03;;;;;;;1.80;1.70;;;22.60;93.90;;;;;;5031719;28;20398;-66
2021/10/31 11:08:30;;;;;;;3.70;2.07;;;22.20;94.20;;;;;;5032732;28;20431;-66
2021/10/31 11:11:05;;;;;;;1.50;1.40;;;21.80;94.50;;;;;;5033329;28;20416;-66
2021/10/31 11:13:31;;;;;;;2.00;1.87;;;21.60;94.60;;;;;;5033005;28;20424;-66
2021/10/31 11:15:59;;;;;;;1.33;1.23;;;21.50;94.30;;;;;;5032668;28;20440;-66
2021/10/31 11:18:25;;;;;;;1.73;1.63;;;21.40;94.20;;;;;;5032586;28;20416;-65
2021/10/31 11:20:51;;;;;;;1.63;1.47;;;21.20;94.40;;;;;;5032898;28;20503;-66
2021/10/31 11:23:21;;;;;;;1.73;1.63;;;21.20;95.40;;;;;;5031523;28;20563;-66
2021/10/31 11:25:48;;;;;;;1.70;1.60;;;21.10;93.80;;;;;;5015603;28;20467;-66
2021/10/31 11:28:18;;;;;;;3.13;1.47;;;21.00;94.60;;;;;;5032489;28;20440;-65
2021/10/31 11:30:47;;;;;;;1.63;1.53;;;20.80;94.90;;;;;;5032789;28;20387;-66
2021/10/31 11:33:13;;;;;;;1.10;1.10;;;20.70;94.20;;;;;;5032622;28;20382;-66
2021/10/31 11:35:39;;;;;;;1.40;1.30;;;20.60;93.80;;;;;;5032654;28;20392;-66
2021/10/31 11:38:14;;;;;;;1.57;1.47;;;20.60;94.70;;;;;;5032556;28;20423;-66
2021/10/31 11:40:52;;;;;;;1.90;1.80;;;20.50;94.70;;;;;;5033014;28;20173;-66
2021/10/31 11:43:23;;;;;;;1.40;1.30;;;20.60;94.60;;;;;;5032782;28;20412;-65
2021/10/31 11:45:50;;;;;;;1.47;1.37;;;20.50;94.50;;;;;;5035692;28;20395;-65
2021/10/31 11:48:18;;;;;;;0.90;0.90;;;20.50;94.80;;;;;;5036124;28;20403;-64
2021/10/31 11:51:08;;;;;;;0.90;0.90;;;20.60;93.00;;;;;;5036650;28;20419;-65
2021/10/31 11:53:39;;;;;;;1.03;1.03;;;20.60;91.50;;;;;;5036300;28;20550;-65
2021/10/31 11:56:20;;;;;;;1.97;1.47;;;20.70;89.20;;;;;;5036184;28;20471;-65
2021/10/31 11:58:52;;;;;;;0.60;0.60;;;20.70;90.00;;;;;;5034849;28;20460;-65
2021/10/31 12:01:20;;;;;;;1.00;1.00;;;20.70;91.00;;;;;;5036233;28;20408;-65
2021/10/31 12:03:50;;;;;;;1.17;1.00;;;20.70;89.10;;;;;;5036241;28;20384;-65
2021/10/31 12:06:16;;;;;;;1.07;1.07;;;20.80;88.70;;;;;;5035912;28;20401;-65
2021/10/31 12:09:00;;;;;;;0.93;0.93;;;20.80;88.40;;;;;;5036095;28;20951;-66
2021/10/31 12:11:29;;;;;;;1.20;1.10;;;20.80;88.60;;;;;;5035096;28;20581;-66
2021/10/31 12:13:56;;;;;;;0.93;0.93;;;20.90;89.10;;;;;;5036045;28;20547;-65
2021/10/31 12:16:22;;;;;;;1.23;1.13;;;20.90;90.10;;;;;;5035529;28;20417;-66
2021/10/31 12:18:50;;;;;;;0.90;0.90;;;20.90;89.50;;;;;;5035805;28;20410;-65
2021/10/31 12:21:30;;;;;;;1.33;0.83;;;20.90;88.70;;;;;;5035930;28;20824;-65
2021/10/31 12:24:03;;;;;;;1.10;1.00;;;21.00;88.10;;;;;;5036093;28;20435;-67
2021/10/31 12:26:49;;;;;;;1.30;1.30;;;21.00;87.30;;;;;;5035657;28;20475;-66
2021/10/31 12:29:24;;;;;;;1.10;1.10;;;21.10;89.20;;;;;;5035497;28;20399;-66
2021/10/31 12:31:59;;;;;;;1.20;1.10;;;21.10;88.20;;;;;;5035860;28;20780;-65
2021/10/31 12:34:34;;;;;;;0.73;0.73;;;21.20;86.10;;;;;;5035621;28;20467;-65
2021/10/31 12:37:23;;;;;;;1.00;1.00;;;21.20;84.90;;;;;;5035375;28;20383;-65
2021/10/31 12:39:54;;;;;;;1.70;1.00;;;21.20;83.80;;;;;;5036153;28;20405;-65
2021/10/31 12:42:38;;;;;;;0.90;0.80;;;21.30;84.20;;;;;;5035670;28;20697;-64
2021/10/31 12:45:22;;;;;;;2.13;1.20;;;21.40;83.50;;;;;;5035489;28;20482;-65
2021/10/31 12:47:56;;;;;;;0.80;0.80;;;21.40;81.50;;;;;;5034998;28;20483;-65
2021/10/31 12:50:23;;;;;;;1.00;1.00;;;21.40;80.70;;;;;;5035232;28;20409;-66
2021/10/31 12:53:01;;;;;;;0.83;0.83;;;21.50;80.80;;;;;;5033867;28;20887;-65
2021/10/31 12:55:29;;;;;;;1.30;1.30;;;21.60;81.20;;;;;;5035310;28;20416;-66
2021/10/31 12:57:57;;;;;;;0.90;0.90;;;21.50;80.90;;;;;;5033782;28;20399;-65
2021/10/31 13:00:25;;;;;;;0.90;0.90;;;21.60;81.20;;;;;;5035041;28;20390;-65